createdAt,value
2022-09-16T00:00:05.492Z,99.30
2022-09-16T00:01:05.563Z,99.30
2022-09-16T00:02:06.337Z,99.30
2022-09-16T00:03:06.276Z,99.20
2022-09-16T00:04:06.285Z,99.00
2022-09-16T00:05:05.441Z,99.71
2022-09-16T00:06:05.434Z,99.71
2022-09-16T00:07:08.281Z,99.41
2022-09-16T00:08:05.391Z,99.20
2022-09-16T00:09:05.368Z,99.30
2022-09-16T00:10:05.424Z,99.61
2022-09-16T00:11:06.281Z,99.51
2022-09-16T00:12:05.355Z,99.41
2022-09-16T00:13:08.277Z,99.10
2022-09-16T00:14:05.329Z,99.41
2022-09-16T00:15:05.327Z,99.51
2022-09-16T00:16:05.373Z,99.81
2022-09-16T00:17:05.307Z,99.91
2022-09-16T00:18:05.273Z,98.90
2022-09-16T00:19:05.266Z,99.10
2022-09-16T00:20:05.248Z,99.25
2022-09-16T00:21:05.242Z,99.15
2022-09-16T00:22:05.257Z,99.71
2022-09-16T00:23:05.230Z,99.66
2022-09-16T00:24:05.779Z,99.04
2022-09-16T00:25:06.262Z,99.41
2022-09-16T00:26:05.193Z,99.51
2022-09-16T00:27:05.175Z,99.35
2022-09-16T00:28:05.162Z,99.10
2022-09-16T00:29:05.176Z,99.66
2022-09-16T00:30:05.798Z,99.15
2022-09-16T00:31:05.202Z,98.79
2022-09-16T00:32:05.129Z,99.51
2022-09-16T00:33:05.124Z,99.15
2022-09-16T00:34:05.121Z,99.25
2022-09-16T00:35:05.311Z,99.25
2022-09-16T00:36:05.082Z,99.35
2022-09-16T00:37:05.065Z,99.80
2022-09-16T00:38:05.084Z,99.80
2022-09-16T00:39:05.037Z,99.15
2022-09-16T00:40:05.093Z,99.76
2022-09-16T00:41:05.020Z,99.96
2022-09-16T00:42:05.035Z,99.66
2022-09-16T00:43:05.882Z,99.55
2022-09-16T00:44:05.783Z,99.60
2022-09-16T00:45:07.782Z,99.50
2022-09-16T00:46:05.798Z,99.80
2022-09-16T00:47:05.051Z,99.91
2022-09-16T00:48:04.950Z,99.80
2022-09-16T00:49:04.951Z,99.80
2022-09-16T00:50:04.921Z,99.86
2022-09-16T00:51:05.781Z,99.70
2022-09-16T00:52:06.818Z,99.99
2022-09-16T00:53:07.781Z,99.86
2022-09-16T00:54:05.826Z,99.45
2022-09-16T00:55:04.884Z,99.15
2022-09-16T00:56:04.860Z,99.15
2022-09-16T00:57:04.855Z,99.25
2022-09-16T00:58:04.835Z,99.45
2022-09-16T00:59:04.837Z,99.29
2022-09-16T01:00:04.819Z,99.70
2022-09-16T01:01:04.872Z,99.55
2022-09-16T01:02:04.834Z,99.40
2022-09-16T01:03:04.778Z,99.91
2022-09-16T01:04:04.808Z,99.70
2022-09-16T01:05:04.785Z,99.70
2022-09-16T01:06:04.752Z,99.80
2022-09-16T01:07:04.746Z,99.91
2022-09-16T01:08:07.319Z,99.70
2022-09-16T01:09:04.711Z,99.40
2022-09-16T01:10:04.815Z,99.19
2022-09-16T01:11:04.684Z,99.66
2022-09-16T01:12:05.282Z,99.60
2022-09-16T01:13:04.669Z,99.50
2022-09-16T01:14:04.818Z,99.50
2022-09-16T01:15:05.281Z,99.29
2022-09-16T01:16:04.677Z,98.89
2022-09-16T01:17:04.651Z,99.29
2022-09-16T01:18:05.297Z,98.79
2022-09-16T01:19:04.598Z,99.19
2022-09-16T01:20:04.825Z,99.09
2022-09-16T01:21:04.632Z,99.40
2022-09-16T01:22:04.600Z,99.80
2022-09-16T01:23:04.560Z,99.19
2022-09-16T01:24:04.548Z,99.25
2022-09-16T01:25:04.539Z,99.70
2022-09-16T01:26:04.534Z,98.84
2022-09-16T01:27:04.533Z,99.04
2022-09-16T01:28:04.514Z,99.09
2022-09-16T01:29:04.496Z,99.09
2022-09-16T01:30:04.490Z,98.89
2022-09-16T01:31:04.502Z,99.25
2022-09-16T01:32:04.478Z,98.89
2022-09-16T01:33:04.447Z,99.04
2022-09-16T01:34:04.469Z,99.45
2022-09-16T01:35:04.422Z,99.45
2022-09-16T01:36:04.424Z,99.04
2022-09-16T01:37:04.421Z,99.04
2022-09-16T01:38:04.407Z,99.70
2022-09-16T01:39:04.379Z,99.29
2022-09-16T01:40:04.463Z,98.89
2022-09-16T01:41:05.289Z,99.70
2022-09-16T01:42:04.378Z,99.09
2022-09-16T01:43:04.340Z,99.35
2022-09-16T01:44:04.375Z,99.29
2022-09-16T01:45:04.317Z,98.79
2022-09-16T01:46:04.361Z,99.19
2022-09-16T01:47:04.323Z,98.99
2022-09-16T01:48:04.289Z,99.35
2022-09-16T01:49:04.278Z,99.45
2022-09-16T01:50:04.288Z,98.99
2022-09-16T01:51:04.786Z,99.19
2022-09-16T01:52:04.798Z,99.04
2022-09-16T01:53:04.283Z,99.80
2022-09-16T01:54:04.226Z,99.19
2022-09-16T01:55:04.218Z,98.94
2022-09-16T01:56:04.787Z,99.29
2022-09-16T01:57:04.212Z,98.84
2022-09-16T01:58:06.788Z,98.58
2022-09-16T01:59:04.175Z,99.15
2022-09-16T02:00:04.154Z,99.19
2022-09-16T02:01:04.146Z,99.15
2022-09-16T02:02:04.274Z,99.15
2022-09-16T02:03:04.124Z,97.92
2022-09-16T02:04:04.322Z,99.19
2022-09-16T02:05:04.106Z,99.15
2022-09-16T02:06:04.098Z,98.99
2022-09-16T02:07:04.789Z,98.54
2022-09-16T02:08:04.101Z,99.29
2022-09-16T02:09:06.809Z,98.68
2022-09-16T02:10:04.786Z,99.29
2022-09-16T02:11:04.033Z,99.29
2022-09-16T02:12:04.022Z,99.29
2022-09-16T02:13:04.018Z,98.84
2022-09-16T02:14:04.317Z,98.38
2022-09-16T02:15:03.997Z,98.54
2022-09-16T02:16:04.411Z,98.79
2022-09-16T02:17:03.972Z,98.79
2022-09-16T02:18:03.952Z,99.09
2022-09-16T02:19:03.963Z,98.99
2022-09-16T02:20:03.960Z,98.99
2022-09-16T02:21:03.930Z,98.68
2022-09-16T02:22:03.911Z,99.09
2022-09-16T02:23:03.923Z,98.99
2022-09-16T02:24:03.914Z,99.50
2022-09-16T02:25:06.806Z,99.09
2022-09-16T02:26:03.876Z,99.50
2022-09-16T02:27:04.794Z,99.40
2022-09-16T02:28:03.843Z,99.15
2022-09-16T02:29:03.860Z,99.29
2022-09-16T02:30:04.786Z,99.29
2022-09-16T02:31:03.900Z,99.09
2022-09-16T02:32:04.314Z,99.19
2022-09-16T02:33:03.825Z,99.99
2022-09-16T02:34:03.780Z,99.29
2022-09-16T02:35:04.293Z,99.99
2022-09-16T02:36:06.290Z,99.91
2022-09-16T02:37:03.736Z,99.70
2022-09-16T02:38:03.762Z,99.70
2022-09-16T02:39:03.730Z,99.70
2022-09-16T02:40:03.744Z,99.70
2022-09-16T02:41:03.730Z,99.70
2022-09-16T02:42:03.837Z,99.70
2022-09-16T02:43:06.381Z,99.80
2022-09-16T02:44:03.672Z,99.50
2022-09-16T02:45:03.842Z,99.99
2022-09-16T02:46:04.339Z,99.50
2022-09-16T02:47:03.650Z,99.80
2022-09-16T02:48:03.632Z,99.91
2022-09-16T02:49:03.640Z,99.60
2022-09-16T02:50:04.289Z,99.80
2022-09-16T02:51:03.594Z,99.80
2022-09-16T02:52:03.580Z,99.50
2022-09-16T02:53:04.299Z,99.50
2022-09-16T02:54:03.587Z,99.80
2022-09-16T02:55:03.551Z,99.80
2022-09-16T02:56:03.536Z,99.91
2022-09-16T02:57:03.549Z,99.80
2022-09-16T02:58:03.853Z,99.95
2022-09-16T02:59:03.511Z,99.80
2022-09-16T03:00:03.491Z,99.80
2022-09-16T03:01:03.480Z,99.99
2022-09-16T03:02:03.534Z,99.50
2022-09-16T03:03:03.548Z,99.70
2022-09-16T03:04:04.304Z,99.99
2022-09-16T03:05:03.440Z,99.60
2022-09-16T03:06:03.826Z,99.99
2022-09-16T03:07:03.411Z,99.99
2022-09-16T03:08:03.405Z,99.91
2022-09-16T03:09:03.411Z,99.40
2022-09-16T03:10:03.408Z,99.99
2022-09-16T03:11:03.374Z,99.99
2022-09-16T03:12:04.295Z,99.70
2022-09-16T03:13:03.363Z,99.50
2022-09-16T03:14:04.326Z,99.99
2022-09-16T03:15:03.328Z,99.80
2022-09-16T03:16:03.401Z,99.70
2022-09-16T03:17:03.303Z,99.50
2022-09-16T03:18:03.298Z,99.80
2022-09-16T03:19:03.307Z,99.70
2022-09-16T03:20:03.804Z,99.70
2022-09-16T03:21:03.804Z,99.80
2022-09-16T03:22:03.308Z,99.50
2022-09-16T03:23:03.251Z,99.80
2022-09-16T03:24:03.249Z,99.99
2022-09-16T03:25:03.327Z,99.91
2022-09-16T03:26:03.210Z,99.91
2022-09-16T03:27:03.793Z,99.99
2022-09-16T03:28:05.810Z,99.99
2022-09-16T03:29:03.177Z,99.80
2022-09-16T03:30:03.172Z,99.99
2022-09-16T03:31:03.273Z,99.99
2022-09-16T03:32:03.142Z,99.99
2022-09-16T03:33:03.131Z,99.40
2022-09-16T03:34:04.178Z,99.99
2022-09-16T03:35:03.115Z,99.91
2022-09-16T03:36:03.372Z,99.99
2022-09-16T03:37:03.805Z,99.80
2022-09-16T03:38:03.118Z,99.70
2022-09-16T03:39:03.088Z,99.99
2022-09-16T03:40:03.106Z,99.99
2022-09-16T03:41:03.051Z,99.99
2022-09-16T03:42:03.028Z,99.99
2022-09-16T03:43:03.026Z,99.40
2022-09-16T03:44:04.413Z,99.99
2022-09-16T03:45:03.005Z,99.99
2022-09-16T03:46:03.027Z,99.99
2022-09-16T03:47:03.327Z,99.99
2022-09-16T03:48:03.822Z,99.99
2022-09-16T03:49:02.977Z,99.99
2022-09-16T03:50:02.948Z,99.91
2022-09-16T03:51:02.933Z,99.99
2022-09-16T03:52:02.941Z,99.99
2022-09-16T03:53:02.954Z,99.80
2022-09-16T03:54:03.791Z,99.99
2022-09-16T03:55:02.906Z,99.99
2022-09-16T03:56:02.882Z,99.70
2022-09-16T03:57:02.869Z,99.99
2022-09-16T03:58:02.859Z,99.60
2022-09-16T03:59:02.871Z,99.40
2022-09-16T04:00:03.367Z,99.44
2022-09-16T04:01:05.815Z,99.99
2022-09-16T04:02:02.859Z,99.91
2022-09-16T04:03:17.798Z,99.50
2022-09-16T04:04:02.789Z,99.99
2022-09-16T04:05:02.786Z,99.95
2022-09-16T04:06:02.829Z,99.99
2022-09-16T04:07:02.762Z,99.99
2022-09-16T04:08:02.754Z,99.70
2022-09-16T04:09:02.773Z,99.44
2022-09-16T04:10:02.735Z,99.75
2022-09-16T04:11:02.721Z,99.65
2022-09-16T04:12:09.305Z,99.95
2022-09-16T04:13:02.713Z,99.75
2022-09-16T04:14:02.688Z,99.99
2022-09-16T04:15:02.671Z,99.44
2022-09-16T04:16:02.739Z,99.29
2022-09-16T04:17:02.655Z,99.24
2022-09-16T04:18:02.647Z,99.29
2022-09-16T04:19:02.637Z,99.34
2022-09-16T04:20:02.619Z,99.19
2022-09-16T04:21:03.296Z,99.50
2022-09-16T04:22:02.615Z,99.40
2022-09-16T04:23:02.593Z,99.29
2022-09-16T04:24:02.593Z,99.40
2022-09-16T04:25:02.555Z,98.27
2022-09-16T04:26:02.832Z,98.48
2022-09-16T04:27:02.546Z,99.50
2022-09-16T04:28:02.539Z,98.63
2022-09-16T04:29:02.526Z,98.43
2022-09-16T04:30:03.301Z,98.38
2022-09-16T04:31:02.555Z,98.83
2022-09-16T04:32:02.842Z,98.43
2022-09-16T04:33:03.301Z,98.63
2022-09-16T04:34:04.329Z,98.83
2022-09-16T04:35:02.456Z,99.04
2022-09-16T04:36:02.442Z,98.63
2022-09-16T04:37:02.445Z,98.63
2022-09-16T04:38:02.421Z,98.02
2022-09-16T04:39:03.292Z,98.63
2022-09-16T04:40:04.991Z,98.73
2022-09-16T04:41:02.402Z,98.43
2022-09-16T04:42:02.381Z,98.38
2022-09-16T04:43:05.302Z,99.24
2022-09-16T04:44:02.384Z,99.04
2022-09-16T04:45:02.349Z,98.63
2022-09-16T04:46:03.400Z,98.73
2022-09-16T04:47:02.319Z,99.04
2022-09-16T04:48:02.332Z,99.24
2022-09-16T04:49:02.296Z,99.24
2022-09-16T04:50:02.301Z,99.34
2022-09-16T04:51:03.321Z,98.93
2022-09-16T04:52:02.291Z,99.44
2022-09-16T04:53:02.280Z,99.54
2022-09-16T04:54:02.251Z,99.24
2022-09-16T04:55:02.251Z,99.54
2022-09-16T04:56:02.234Z,99.65
2022-09-16T04:57:02.263Z,99.44
2022-09-16T04:58:02.202Z,99.54
2022-09-16T04:59:02.231Z,99.34
2022-09-16T05:00:02.204Z,99.14
2022-09-16T05:01:02.837Z,99.75
2022-09-16T05:02:04.804Z,99.24
2022-09-16T05:03:02.241Z,99.54
2022-09-16T05:04:02.175Z,99.14
2022-09-16T05:05:02.820Z,99.85
2022-09-16T05:06:02.144Z,99.75
2022-09-16T05:07:02.101Z,99.44
2022-09-16T05:08:02.342Z,99.54
2022-09-16T05:09:02.229Z,99.34
2022-09-16T05:10:02.085Z,99.44
2022-09-16T05:11:02.056Z,98.99
2022-09-16T05:12:02.813Z,99.85
2022-09-16T05:13:02.819Z,99.95
2022-09-16T05:14:02.054Z,99.85
2022-09-16T05:15:02.016Z,99.54
2022-09-16T05:16:03.124Z,99.70
2022-09-16T05:17:02.430Z,99.95
2022-09-16T05:18:01.988Z,99.65
2022-09-16T05:19:01.973Z,99.54
2022-09-16T05:20:02.085Z,99.99
2022-09-16T05:21:01.945Z,99.99
2022-09-16T05:22:01.967Z,99.99
2022-09-16T05:23:01.921Z,99.99
2022-09-16T05:24:01.933Z,99.99
2022-09-16T05:25:02.928Z,99.99
2022-09-16T05:26:01.900Z,99.99
2022-09-16T05:27:01.915Z,99.99
2022-09-16T05:28:02.806Z,99.99
2022-09-16T05:29:04.811Z,99.99
2022-09-16T05:30:01.858Z,99.99
2022-09-16T05:31:01.875Z,99.99
2022-09-16T05:32:01.868Z,99.99
2022-09-16T05:33:08.806Z,99.99
2022-09-16T05:34:01.817Z,99.99
2022-09-16T05:35:01.820Z,99.99
2022-09-16T05:36:01.903Z,99.99
2022-09-16T05:37:01.771Z,99.99
2022-09-16T05:38:01.783Z,99.99
2022-09-16T05:40:05.326Z,99.99
2022-09-16T05:41:08.311Z,99.99
2022-09-16T05:42:01.742Z,99.99
2022-09-16T05:43:22.849Z,99.99
2022-09-16T05:44:01.706Z,99.99
2022-09-16T05:45:01.692Z,99.99
2022-09-16T05:46:02.396Z,99.99
2022-09-16T05:47:02.312Z,99.99
2022-09-16T05:48:01.680Z,99.99
2022-09-16T05:49:01.834Z,99.99
2022-09-16T05:50:01.848Z,99.99
2022-09-16T05:51:01.625Z,99.99
2022-09-16T05:52:01.732Z,99.99
2022-09-16T05:53:16.309Z,99.99
2022-09-16T05:54:01.623Z,99.99
2022-09-16T05:55:01.838Z,99.99
2022-09-16T05:56:01.587Z,99.99
2022-09-16T05:57:06.610Z,99.65
2022-09-16T05:58:03.332Z,99.65
2022-09-16T05:59:01.560Z,99.99
2022-09-16T06:00:01.565Z,99.99
2022-09-16T06:01:01.526Z,99.99
2022-09-16T06:02:01.593Z,99.99
2022-09-16T06:03:02.555Z,99.99
2022-09-16T06:04:01.483Z,99.65
2022-09-16T06:05:02.310Z,99.44
2022-09-16T06:06:01.845Z,99.85
2022-09-16T06:07:01.456Z,99.99
2022-09-16T06:08:01.557Z,99.75
2022-09-16T06:09:01.431Z,99.99
2022-09-16T06:10:04.834Z,99.75
2022-09-16T06:11:02.320Z,99.49
2022-09-16T06:12:02.324Z,99.95
2022-09-16T06:13:01.395Z,99.99
2022-09-16T06:14:02.311Z,99.14
2022-09-16T06:15:02.406Z,99.44
2022-09-16T06:16:04.401Z,99.75
2022-09-16T06:17:01.344Z,99.44
2022-09-16T06:18:06.134Z,99.75
2022-09-16T06:19:02.334Z,99.34
2022-09-16T06:20:03.804Z,99.34
2022-09-16T06:21:01.342Z,98.63
2022-09-16T06:22:01.292Z,98.02
2022-09-16T06:23:02.867Z,97.30
2022-09-16T06:24:07.923Z,98.11
2022-09-16T06:25:01.253Z,97.71
2022-09-16T06:26:03.819Z,98.52
2022-09-16T06:27:01.245Z,98.52
2022-09-16T06:28:03.816Z,98.22
2022-09-16T06:29:01.815Z,98.63
2022-09-16T06:30:03.818Z,98.11
2022-09-16T06:31:01.345Z,99.04
2022-09-16T06:32:02.845Z,98.52
2022-09-16T06:33:07.811Z,98.43
2022-09-16T06:34:01.809Z,99.04
2022-09-16T06:35:01.167Z,98.32
2022-09-16T06:36:03.811Z,99.34
2022-09-16T06:37:01.129Z,99.04
2022-09-16T06:38:01.829Z,99.14
2022-09-16T06:39:01.106Z,98.99
2022-09-16T06:40:02.090Z,99.19
2022-09-16T06:41:04.338Z,99.09
2022-09-16T06:42:03.816Z,99.19
2022-09-16T06:43:01.814Z,99.66
2022-09-16T06:44:04.335Z,99.60
2022-09-16T06:45:01.816Z,99.40
2022-09-16T06:46:16.940Z,99.50
2022-09-16T06:47:01.819Z,99.60
2022-09-16T06:48:08.848Z,99.80
2022-09-16T06:49:05.817Z,99.99
2022-09-16T06:50:02.834Z,99.29
2022-09-16T06:51:03.825Z,99.29
2022-09-16T06:52:01.834Z,99.15
2022-09-16T06:53:01.814Z,99.19
2022-09-16T06:54:01.813Z,99.29
2022-09-16T06:55:04.351Z,99.80
2022-09-16T06:56:03.969Z,99.91
2022-09-16T06:57:01.911Z,98.99
2022-09-16T06:58:07.813Z,99.80
2022-09-16T06:59:01.821Z,99.19
2022-09-16T07:00:17.876Z,99.70
2022-09-16T07:01:01.926Z,99.45
2022-09-16T07:02:01.882Z,99.19
2022-09-16T07:03:01.928Z,98.99
2022-09-16T07:04:01.820Z,98.54
2022-09-16T07:05:08.374Z,98.13
2022-09-16T07:06:03.313Z,97.77
2022-09-16T07:07:09.997Z,97.92
2022-09-16T07:08:01.779Z,98.07
2022-09-16T07:09:02.348Z,97.16
2022-09-16T07:10:03.324Z,97.56
2022-09-16T07:11:07.431Z,97.66
2022-09-16T07:12:02.363Z,98.18
2022-09-16T07:13:03.311Z,97.77
2022-09-16T07:14:04.372Z,97.97
2022-09-16T07:15:03.320Z,97.87
2022-09-16T07:16:13.269Z,97.66
2022-09-16T07:17:01.785Z,97.56
2022-09-16T07:18:02.449Z,97.92
2022-09-16T07:19:04.666Z,97.77
2022-09-16T07:20:02.381Z,97.52
2022-09-16T07:21:03.323Z,97.52
2022-09-16T07:22:00.646Z,97.72
2022-09-16T07:23:03.331Z,97.46
2022-09-16T07:24:00.597Z,97.36
2022-09-16T07:25:03.838Z,97.52
2022-09-16T07:26:03.313Z,97.77
2022-09-16T07:27:03.461Z,98.13
2022-09-16T07:28:03.318Z,97.72
2022-09-16T07:29:00.555Z,97.56
2022-09-16T07:30:05.637Z,97.25
2022-09-16T07:31:02.437Z,97.05
2022-09-16T07:32:08.341Z,96.75
2022-09-16T07:33:03.319Z,97.66
2022-09-16T07:34:04.039Z,97.87
2022-09-16T07:35:03.315Z,97.11
2022-09-16T07:36:00.467Z,97.66
2022-09-16T07:37:02.343Z,97.72
2022-09-16T07:38:00.447Z,97.66
2022-09-16T07:39:07.320Z,97.52
2022-09-16T07:40:02.465Z,97.25
2022-09-16T07:41:03.319Z,97.66
2022-09-16T07:42:05.735Z,97.36
2022-09-16T07:43:03.429Z,97.21
2022-09-16T07:44:00.382Z,97.66
2022-09-16T07:45:03.323Z,97.77
2022-09-16T07:46:00.395Z,97.16
2022-09-16T07:47:02.374Z,97.41
2022-09-16T07:48:00.340Z,97.16
2022-09-16T07:49:21.333Z,97.41
2022-09-16T07:50:00.325Z,96.50
2022-09-16T07:51:02.814Z,97.00
2022-09-16T07:52:02.815Z,97.00
2022-09-16T07:53:02.338Z,96.55
2022-09-16T07:54:02.811Z,95.43
2022-09-16T07:55:02.814Z,95.53
2022-09-16T07:56:00.275Z,94.62
2022-09-16T07:57:05.334Z,95.64
2022-09-16T07:58:00.838Z,95.84
2022-09-16T07:59:02.942Z,94.62
2022-09-16T08:00:00.815Z,94.52
2022-09-16T08:01:04.798Z,94.62
2022-09-16T08:02:00.379Z,94.31
2022-09-16T08:03:02.919Z,94.37
2022-09-16T08:04:00.184Z,94.62
2022-09-16T08:05:14.821Z,94.98
2022-09-16T08:06:02.820Z,94.47
2022-09-16T08:07:02.401Z,92.74
2022-09-16T08:08:00.127Z,92.54
2022-09-16T08:09:10.085Z,93.15
2022-09-16T08:10:01.095Z,92.60
2022-09-16T08:11:21.104Z,94.02
2022-09-16T08:12:00.095Z,92.19
2022-09-16T08:13:03.414Z,93.10
2022-09-16T08:14:00.048Z,92.80
2022-09-16T08:15:00.157Z,93.31
2022-09-16T08:16:00.825Z,93.71
2022-09-16T08:17:00.066Z,93.10
2022-09-16T08:18:00.033Z,92.45
2022-09-16T08:19:06.819Z,92.14
2022-09-16T08:20:02.827Z,92.35
2022-09-16T08:21:03.832Z,92.76
2022-09-16T08:22:02.821Z,91.53
2022-09-16T08:23:00.350Z,91.03
2022-09-16T08:24:00.848Z,91.03
2022-09-16T08:25:28.913Z,92.14
2022-09-16T08:25:59.917Z,90.92
2022-09-16T08:26:59.927Z,91.94
2022-09-16T08:27:59.904Z,92.14
2022-09-16T08:29:08.739Z,91.03
2022-09-16T08:29:59.882Z,91.69
2022-09-16T08:30:59.993Z,91.19
2022-09-16T08:31:59.909Z,90.88
2022-09-16T08:32:59.839Z,90.13
2022-09-16T08:33:59.834Z,90.64
2022-09-16T08:34:59.883Z,90.78
2022-09-16T08:36:14.326Z,90.58
2022-09-16T08:36:59.802Z,89.76
2022-09-16T08:37:59.789Z,90.01
2022-09-16T08:38:59.780Z,90.72
2022-09-16T08:39:59.920Z,90.99
2022-09-16T08:40:59.779Z,91.49
2022-09-16T08:41:59.753Z,90.99
2022-09-16T08:42:59.739Z,90.78
2022-09-16T08:43:59.731Z,90.88
2022-09-16T08:44:59.854Z,90.44
2022-09-16T08:46:06.537Z,90.03
2022-09-16T08:46:59.688Z,90.74
2022-09-16T08:48:06.326Z,90.53
2022-09-16T08:48:59.671Z,88.20
2022-09-16T08:49:59.734Z,87.29
2022-09-16T08:50:59.653Z,88.50
2022-09-16T08:51:59.640Z,89.17
2022-09-16T08:52:59.624Z,88.97
2022-09-16T08:54:03.349Z,89.28
2022-09-16T08:54:59.606Z,88.26
2022-09-16T08:55:59.617Z,89.11
2022-09-16T08:57:00.328Z,88.87
2022-09-16T08:58:02.322Z,88.36
2022-09-16T08:58:59.569Z,87.75
2022-09-16T08:59:59.854Z,87.34
2022-09-16T09:01:00.374Z,86.13
2022-09-16T09:02:08.194Z,86.43
2022-09-16T09:03:00.514Z,85.72
2022-09-16T09:03:59.509Z,83.69
2022-09-16T09:04:59.498Z,84.91
2022-09-16T09:05:59.508Z,83.38
2022-09-16T09:07:00.326Z,84.20
2022-09-16T09:08:02.336Z,85.38
2022-09-16T09:09:00.323Z,84.36
2022-09-16T09:09:59.449Z,81.52
2022-09-16T09:10:59.853Z,81.01
2022-09-16T09:11:59.424Z,81.72
2022-09-16T09:13:00.564Z,83.04
2022-09-16T09:13:59.391Z,83.00
2022-09-16T09:15:02.332Z,80.77
2022-09-16T09:15:59.414Z,81.99
2022-09-16T09:16:59.865Z,81.58
2022-09-16T09:18:08.192Z,82.70
2022-09-16T09:19:02.331Z,82.39
2022-09-16T09:20:00.321Z,82.45
2022-09-16T09:20:59.324Z,81.85
2022-09-16T09:21:59.831Z,81.20
2022-09-16T09:22:59.300Z,79.47
2022-09-16T09:23:59.317Z,80.59
2022-09-16T09:24:59.277Z,79.47
2022-09-16T09:25:59.305Z,78.77
2022-09-16T09:26:59.257Z,78.26
2022-09-16T09:27:59.270Z,75.82
2022-09-16T09:28:59.236Z,75.01
2022-09-16T09:29:59.245Z,76.03
2022-09-16T09:30:59.350Z,74.00
2022-09-16T09:31:59.212Z,71.88
2022-09-16T09:32:59.254Z,72.28
2022-09-16T09:33:59.359Z,72.72
2022-09-16T09:34:59.182Z,73.43
2022-09-16T09:35:59.191Z,73.53
2022-09-16T09:36:59.168Z,72.21
2022-09-16T09:37:59.131Z,74.17
2022-09-16T09:38:59.127Z,74.24
2022-09-16T09:39:59.158Z,74.71
2022-09-16T09:40:59.100Z,74.07
2022-09-16T09:41:59.082Z,74.07
2022-09-16T09:42:59.108Z,74.33
2022-09-16T09:43:59.064Z,74.13
2022-09-16T09:45:01.494Z,75.55
2022-09-16T09:45:59.128Z,75.15
2022-09-16T09:47:00.082Z,72.61
2022-09-16T09:47:59.824Z,71.44
2022-09-16T09:48:59.038Z,70.72
2022-09-16T09:49:59.133Z,71.94
2022-09-16T09:50:58.992Z,72.01
2022-09-16T09:51:58.971Z,73.22
2022-09-16T09:52:58.972Z,72.81
2022-09-16T09:53:58.973Z,71.30
2022-09-16T09:54:59.836Z,71.40
2022-09-16T09:55:59.827Z,73.59
2022-09-16T09:56:58.932Z,71.57
2022-09-16T09:57:58.903Z,71.88
2022-09-16T09:58:59.841Z,71.97
2022-09-16T09:59:58.918Z,71.23
2022-09-16T10:00:58.950Z,70.83
2022-09-16T10:01:58.935Z,71.60
2022-09-16T10:02:59.830Z,72.68
2022-09-16T10:03:58.857Z,70.66
2022-09-16T10:04:58.832Z,70.09
2022-09-16T10:05:58.985Z,70.49
2022-09-16T10:06:59.344Z,71.44
2022-09-16T10:08:16.389Z,71.23
2022-09-16T10:08:59.336Z,71.73
2022-09-16T10:10:01.334Z,72.34
2022-09-16T10:10:58.896Z,71.94
2022-09-16T10:11:58.749Z,72.44
2022-09-16T10:12:59.339Z,72.55
2022-09-16T10:13:58.748Z,70.36
2022-09-16T10:14:59.330Z,71.77
2022-09-16T10:15:59.405Z,72.38
2022-09-16T10:16:58.724Z,72.38
2022-09-16T10:17:59.331Z,71.37
2022-09-16T10:18:58.683Z,72.41
2022-09-16T10:20:05.337Z,72.11
2022-09-16T10:20:58.668Z,71.50
2022-09-16T10:21:59.007Z,72.61
2022-09-16T10:22:58.643Z,73.97
2022-09-16T10:23:58.621Z,73.63
2022-09-16T10:24:58.619Z,73.56
2022-09-16T10:26:19.629Z,73.25
2022-09-16T10:26:58.595Z,73.86
2022-09-16T10:28:05.334Z,72.68
2022-09-16T10:29:01.345Z,72.58
2022-09-16T10:29:58.563Z,73.80
2022-09-16T10:31:05.381Z,73.97
2022-09-16T10:31:58.663Z,73.86
2022-09-16T10:32:58.529Z,73.86
2022-09-16T10:33:58.516Z,74.04
2022-09-16T10:34:58.512Z,75.15
2022-09-16T10:35:58.508Z,73.80
2022-09-16T10:36:58.479Z,73.59
2022-09-16T10:37:58.625Z,73.76
2022-09-16T10:39:04.422Z,72.51
2022-09-16T10:40:04.936Z,72.21
2022-09-16T10:41:19.445Z,72.31
2022-09-16T10:41:58.429Z,73.93
2022-09-16T10:42:58.422Z,73.52
2022-09-16T10:44:00.363Z,73.86
2022-09-16T10:44:58.388Z,73.86
2022-09-16T10:45:58.428Z,73.46
2022-09-16T10:47:19.373Z,72.85
2022-09-16T10:47:59.984Z,73.86
2022-09-16T10:48:59.335Z,73.22
2022-09-16T10:49:58.363Z,74.03
2022-09-16T10:50:58.327Z,73.28
2022-09-16T10:52:19.331Z,72.31
2022-09-16T10:52:58.849Z,73.83
2022-09-16T10:53:58.436Z,73.02
2022-09-16T10:55:02.168Z,71.50
2022-09-16T10:55:58.365Z,70.18
2022-09-16T10:56:58.263Z,72.31
2022-09-16T10:57:58.267Z,71.40
2022-09-16T10:59:04.831Z,72.61
2022-09-16T10:59:58.231Z,72.58
2022-09-16T11:00:58.497Z,72.28
2022-09-16T11:01:58.689Z,71.30
2022-09-16T11:02:58.200Z,72.11
2022-09-16T11:03:58.186Z,72.72
2022-09-16T11:05:00.833Z,71.60
2022-09-16T11:05:58.173Z,71.50
2022-09-16T11:06:58.172Z,71.67
2022-09-16T11:07:58.144Z,71.57
2022-09-16T11:08:58.134Z,72.38
2022-09-16T11:09:58.272Z,72.14
2022-09-16T11:10:58.105Z,71.87
2022-09-16T11:11:58.118Z,71.47
2022-09-16T11:12:58.117Z,72.14
2022-09-16T11:13:58.089Z,71.37
2022-09-16T11:15:00.841Z,71.33
2022-09-16T11:15:58.131Z,71.94
2022-09-16T11:16:58.049Z,72.64
2022-09-16T11:17:58.035Z,72.91
2022-09-16T11:18:58.129Z,73.72
2022-09-16T11:19:58.026Z,74.22
2022-09-16T11:20:58.851Z,74.80
2022-09-16T11:21:57.998Z,73.69
2022-09-16T11:22:58.372Z,72.91
2022-09-16T11:23:57.969Z,73.32
2022-09-16T11:24:59.869Z,72.75
2022-09-16T11:26:12.967Z,73.66
2022-09-16T11:26:58.840Z,73.82
2022-09-16T11:27:57.916Z,73.93
2022-09-16T11:28:57.916Z,72.71
2022-09-16T11:29:57.897Z,73.66
2022-09-16T11:30:59.915Z,73.79
2022-09-16T11:31:57.886Z,74.90
2022-09-16T11:33:01.123Z,75.85
2022-09-16T11:33:58.855Z,75.55
2022-09-16T11:34:58.845Z,75.04
2022-09-16T11:35:59.886Z,75.45
2022-09-16T11:36:57.851Z,76.39
2022-09-16T11:37:57.821Z,75.58
2022-09-16T11:39:00.336Z,75.75
2022-09-16T11:39:57.862Z,75.81
2022-09-16T11:40:57.777Z,76.08
2022-09-16T11:41:57.900Z,74.26
2022-09-16T11:42:57.773Z,74.87
2022-09-16T11:43:57.769Z,75.37
2022-09-16T11:44:58.344Z,75.37
2022-09-16T11:45:58.240Z,75.27
2022-09-16T11:46:57.719Z,74.73
2022-09-16T11:47:58.371Z,75.34
2022-09-16T11:48:57.714Z,75.04
2022-09-16T11:49:58.349Z,75.27
2022-09-16T11:50:57.669Z,75.23
2022-09-16T11:51:57.671Z,73.72
2022-09-16T11:53:03.326Z,71.80
2022-09-16T11:54:02.101Z,72.11
2022-09-16T11:54:57.627Z,71.94
2022-09-16T11:55:57.617Z,71.84
2022-09-16T11:56:58.347Z,71.37
2022-09-16T11:57:57.736Z,72.14
2022-09-16T11:58:57.591Z,72.44
2022-09-16T11:59:57.867Z,71.00
2022-09-16T12:00:57.573Z,71.20
2022-09-16T12:01:58.370Z,69.38
2022-09-16T12:03:18.946Z,69.92
2022-09-16T12:03:57.529Z,69.92
2022-09-16T12:04:57.868Z,70.46
2022-09-16T12:05:58.340Z,70.46
2022-09-16T12:06:57.542Z,71.30
2022-09-16T12:07:58.354Z,72.24
2022-09-16T12:08:59.427Z,70.22
2022-09-16T12:09:58.345Z,70.15
2022-09-16T12:10:57.453Z,72.27
2022-09-16T12:11:57.448Z,69.58
2022-09-16T12:12:57.458Z,71.94
2022-09-16T12:14:05.678Z,72.55
2022-09-16T12:15:01.971Z,72.64
2022-09-16T12:15:58.404Z,72.48
2022-09-16T12:16:57.406Z,73.39
2022-09-16T12:17:57.867Z,72.08
2022-09-16T12:19:00.354Z,73.79
2022-09-16T12:19:57.359Z,70.96
2022-09-16T12:20:57.350Z,70.56
2022-09-16T12:21:58.062Z,69.95
2022-09-16T12:22:57.341Z,70.46
2022-09-16T12:23:57.473Z,68.63
2022-09-16T12:24:57.311Z,64.97
2022-09-16T12:25:57.295Z,64.97
2022-09-16T12:26:57.280Z,64.23
2022-09-16T12:28:03.844Z,63.65
2022-09-16T12:28:58.319Z,63.55
2022-09-16T12:29:57.412Z,62.07
2022-09-16T12:30:57.287Z,61.39
2022-09-16T12:31:58.286Z,63.21
2022-09-16T12:32:59.853Z,62.90
2022-09-16T12:34:18.213Z,65.03
2022-09-16T12:34:57.193Z,65.53
2022-09-16T12:35:57.820Z,65.73
2022-09-16T12:36:59.855Z,65.97
2022-09-16T12:37:57.174Z,66.50
2022-09-16T12:38:57.164Z,67.42
2022-09-16T12:39:58.201Z,67.62
2022-09-16T12:40:57.147Z,68.23
2022-09-16T12:41:57.126Z,69.10
2022-09-16T12:42:57.848Z,69.78
2022-09-16T12:44:06.496Z,70.09
2022-09-16T12:44:58.088Z,69.51
2022-09-16T12:45:57.214Z,70.69
2022-09-16T12:46:57.152Z,71.13
2022-09-16T12:47:58.095Z,70.86
2022-09-16T12:48:57.045Z,71.47
2022-09-16T12:49:57.035Z,71.94
2022-09-16T12:50:57.018Z,71.60
2022-09-16T12:51:57.042Z,70.59
2022-09-16T12:53:03.854Z,70.79